GMAD

Al Massira Airport

Agadir, Morocco
METAR GMAD 171630Z 22008KT 150V270 CAVOK 27/15 Q1010 NOSIG
Observed Flight Rules
Aug-17 @ 16:30 UTC (22 minutes ago) Visual Flight Rules
Wind Visibility Clouds
220° at 8 knots 10,000+ meters
  • Clear skies
Temperatures Readings
Current 27°C / 81°F
Dewpoint 15°C / 59°F
Humidity 48%
Altimeter 29.82" Hg
Pressure 1010 hPa
Elevation 74
METAR GMAD 171630Z 22008KT 150V270 CAVOK 27/15 Q1010 NOSIG
Observed Flight Rules
Aug-17 @ 16:30 UTC
(22 minutes ago)
VFR
Wind Visibility
220° at 8 knots 10,000+ meters
Clouds
  • Clear skies
Temperature Dewpoint
27°C / 81°F 15°C / 59°F
Humidity Altimeter Pressure
48% 29.82" Hg 1010 hPa